Time;durP1;ratioP1;P1;durP2;ratioP2;P2;SDS_P1;SDS_P2;PMS_P1;PMS_P2;Temp;Humidity;BMP_temperature;BMP_pressure;BME280_temperature;BME280_humidity;BME280_pressure;Samples;Min_cycle;Max_cycle;Signal;HPM_P1;HPM_P2
2022/07/24 00:00:26;;;;;;;20.48;13.35;;;;;;;19.20;nan;99176.09;5055108;28;20556;-62
2022/07/24 00:02:51;;;;;;;23.63;12.77;;;;;;;19.19;nan;99160.06;5054920;28;20113;-62
2022/07/24 00:05:16;;;;;;;19.23;12.07;;;;;;;19.18;nan;99159.25;5036403;28;20064;-62
2022/07/24 00:07:41;;;;;;;17.75;11.82;;;;;;;19.18;nan;99163.81;5054672;28;20050;-61
2022/07/24 00:10:06;;;;;;;18.95;11.55;;;;;;;19.16;nan;99158.59;5054854;28;20043;-61
2022/07/24 00:12:31;;;;;;;15.60;11.13;;;;;;;19.13;nan;99161.63;5054851;28;20040;-62
2022/07/24 00:14:56;;;;;;;20.58;11.73;;;;;;;19.10;nan;99153.88;5054687;28;20090;-62
2022/07/24 00:17:21;;;;;;;19.58;11.85;;;;;;;19.07;nan;99161.50;5036850;28;20048;-62
2022/07/24 00:19:46;;;;;;;19.30;11.05;;;;;;;19.05;nan;99163.53;5054676;28;20043;-61
2022/07/24 00:22:11;;;;;;;18.80;13.40;;;;;;;19.02;nan;99162.00;5054759;28;20048;-62
2022/07/24 00:24:36;;;;;;;17.70;11.98;;;;;;;18.98;nan;99163.38;5054363;28;20054;-60
2022/07/24 00:27:00;;;;;;;23.25;12.65;;;;;;;18.98;nan;99170.63;5035953;28;20082;-61
2022/07/24 00:29:25;;;;;;;19.35;13.18;;;;;;;18.96;nan;99172.69;5037192;28;20058;-61
2022/07/24 00:31:50;;;;;;;24.10;13.90;;;;;;;18.94;nan;99172.84;5058639;28;20063;-62
2022/07/24 00:34:14;;;;;;;20.63;13.80;;;;;;;18.95;nan;99166.44;5058525;28;20047;-61
2022/07/24 00:36:43;;;;;;;33.17;13.43;;;;;;;18.97;nan;99177.88;5058491;28;20074;-61
2022/07/24 00:39:07;;;;;;;19.80;12.80;;;;;;;18.98;nan;99179.56;5058916;28;20414;-62
2022/07/24 00:41:35;;;;;;;13.75;11.57;;;;;;;19.00;nan;99172.16;5058255;28;20055;-62
2022/07/24 00:44:12;;;;;;;16.40;11.60;;;;;;;19.03;nan;99177.22;5058804;28;20051;-62
2022/07/24 00:46:39;;;;;;;18.73;12.10;;;;;;;18.97;nan;99177.03;5058496;28;20052;-62
2022/07/24 00:49:06;;;;;;;18.65;11.15;;;;;;;18.93;nan;99171.16;5058066;28;20506;-61
2022/07/24 00:51:32;;;;;;;16.55;11.25;;;;;;;18.91;nan;99162.41;5060535;28;20384;-61
2022/07/24 00:53:57;;;;;;;15.40;11.55;;;;;;;18.90;nan;99170.66;5060711;28;20043;-61
2022/07/24 00:56:22;;;;;;;16.52;10.85;;;;;;;18.88;nan;99162.72;5060035;28;20040;-61
2022/07/24 00:58:47;;;;;;;20.65;11.38;;;;;;;18.87;nan;99169.16;5059507;28;20040;-61
2022/07/24 01:01:13;;;;;;;13.73;10.32;;;;;;;18.85;nan;99165.78;5059448;28;20084;-61
2022/07/24 01:03:37;;;;;;;15.73;10.35;;;;;;;18.80;nan;99162.78;5058203;28;20173;-61
2022/07/24 01:06:03;;;;;;;14.43;10.25;;;;;;;18.76;nan;99167.66;5058590;28;20177;-61
2022/07/24 01:08:27;;;;;;;20.75;10.85;;;;;;;18.72;nan;99168.19;5041711;28;20050;-62
2022/07/24 01:10:52;;;;;;;18.45;10.98;;;;;;;18.70;nan;99168.38;5024294;28;20032;-62
2022/07/24 01:13:17;;;;;;;20.27;11.18;;;;;;;18.72;nan;99162.81;5040262;28;20040;-62
2022/07/24 01:15:42;;;;;;;21.27;11.10;;;;;;;18.71;nan;99161.13;5058282;28;20047;-62
2022/07/24 01:18:06;;;;;;;23.30;10.88;;;;;;;18.70;nan;99159.44;5058377;28;20047;-61
2022/07/24 01:20:38;;;;;;;16.40;10.70;;;;;;;18.74;nan;99160.75;5058260;28;20255;-60
2022/07/24 01:23:03;;;;;;;16.63;10.55;;;;;;;18.73;nan;99161.78;5058524;28;20044;-61
2022/07/24 01:25:29;;;;;;;20.20;11.70;;;;;;;18.76;nan;99170.38;5040714;28;20050;-61
2022/07/24 01:27:53;;;;;;;23.13;10.05;;;;;;;18.81;nan;99169.84;5059112;28;20186;-65
2022/07/24 01:30:18;;;;;;;18.40;10.60;;;;;;;18.82;nan;99169.69;5040179;28;20135;-62
2022/07/24 01:32:43;;;;;;;15.68;9.75;;;;;;;18.86;nan;99162.91;5058476;28;20055;-62
2022/07/24 01:35:08;;;;;;;17.60;11.10;;;;;;;18.90;nan;99171.50;5058271;28;20043;-61
2022/07/24 01:37:33;;;;;;;21.50;11.32;;;;;;;18.93;nan;99170.31;5040085;28;20052;-61
2022/07/24 01:39:57;;;;;;;16.58;10.40;;;;;;;18.94;nan;99166.63;5058285;28;20414;-62
2022/07/24 01:42:25;;;;;;;20.92;11.15;;;;;;;18.95;nan;99171.00;5056839;28;20048;-61
2022/07/24 01:44:50;;;;;;;20.08;9.90;;;;;;;18.96;nan;99172.69;5058281;28;20524;-61
2022/07/24 01:47:14;;;;;;;17.92;10.68;;;;;;;18.99;nan;99175.03;5059426;28;20498;-62
2022/07/24 01:49:39;;;;;;;16.73;11.10;;;;;;;18.99;nan;99175.03;5058980;28;20040;-62
2022/07/24 01:52:04;;;;;;;18.70;9.95;;;;;;;19.01;nan;99175.69;5058648;28;20122;-61
2022/07/24 01:54:29;;;;;;;20.98;10.68;;;;;;;19.02;nan;99175.53;5040388;28;20401;-62
2022/07/24 01:56:54;;;;;;;20.63;9.80;;;;;;;19.03;nan;99181.78;5058921;28;20383;-61
2022/07/24 01:59:18;;;;;;;14.05;9.88;;;;;;;19.02;nan;99175.53;5057618;28;20059;-63
2022/07/24 02:01:43;;;;;;;18.92;11.05;;;;;;;19.02;nan;99170.13;5039301;28;20071;-62
2022/07/24 02:04:08;;;;;;;16.65;9.82;;;;;;;19.06;nan;99176.03;5057469;28;20044;-62
2022/07/24 02:06:32;;;;;;;15.93;10.63;;;;;;;19.07;nan;99175.84;5057681;28;20035;-63
2022/07/24 02:08:57;;;;;;;17.17;10.30;;;;;;;19.08;nan;99176.66;5057478;28;20047;-64
2022/07/24 02:11:22;;;;;;;16.92;10.38;;;;;;;19.09;nan;99179.19;5057246;28;20052;-68
2022/07/24 02:13:47;;;;;;;15.82;10.15;;;;;;;19.12;nan;99176.16;5038888;28;20044;-64
2022/07/24 02:16:12;;;;;;;17.23;9.82;;;;;;;19.15;nan;99183.91;5057244;28;20412;-65
2022/07/24 02:18:36;;;;;;;18.38;10.00;;;;;;;19.19;nan;99181.69;5057055;28;20498;-65
2022/07/24 02:21:01;;;;;;;15.63;9.63;;;;;;;19.21;nan;99188.59;5039101;28;20075;-65
2022/07/24 02:23:26;;;;;;;18.08;10.27;;;;;;;19.27;nan;99183.53;5056859;28;20043;-63
2022/07/24 02:25:51;;;;;;;21.85;9.95;;;;;;;19.36;nan;99187.88;5056863;28;20506;-63
2022/07/24 02:28:17;;;;;;;16.92;9.38;;;;;;;19.42;nan;99181.75;5056871;28;20071;-63
2022/07/24 02:30:42;;;;;;;14.30;9.27;;;;;;;19.47;nan;99188.31;5056986;28;20165;-64
2022/07/24 02:33:07;;;;;;;16.38;10.23;;;;;;;19.51;nan;99180.75;5056679;28;20104;-63
2022/07/24 02:35:32;;;;;;;18.40;10.75;;;;;;;19.53;nan;99174.09;5056696;28;20040;-64
2022/07/24 02:37:57;;;;;;;16.95;10.43;;;;;;;19.59;nan;99183.38;5038404;28;20039;-64
2022/07/24 02:40:21;;;;;;;16.67;10.13;;;;;;;19.66;nan;99184.34;5038482;28;20140;-63
2022/07/24 02:42:46;;;;;;;15.00;10.13;;;;;;;19.70;nan;99182.13;5056464;28;20036;-64
2022/07/24 02:45:11;;;;;;;13.73;10.13;;;;;;;19.74;nan;99178.91;5056498;28;20051;-64
2022/07/24 02:47:47;;;;;;;14.82;9.20;;;;;;;19.83;nan;99180.53;5056356;28;20050;-63
2022/07/24 02:50:12;;;;;;;13.57;8.90;;;;;;;19.85;nan;99175.78;5056663;28;20130;-63
2022/07/24 02:52:37;;;;;;;16.15;9.60;;;;;;;19.94;nan;99182.81;5056449;28;20043;-63
2022/07/24 02:55:01;;;;;;;19.73;10.27;;;;;;;20.05;nan;99188.81;5056571;28;20040;-64
2022/07/24 02:57:27;;;;;;;16.80;9.48;;;;;;;20.15;nan;99179.44;5038437;28;20040;-63
2022/07/24 02:59:52;;;;;;;15.07;9.02;;;;;;;20.27;nan;99177.13;5037933;28;20200;-63
2022/07/24 03:02:17;;;;;;;16.15;9.07;;;;;;;20.37;nan;99172.31;5056193;28;20379;-64
2022/07/24 03:04:42;;;;;;;17.48;9.20;;;;;;;20.49;nan;99173.56;5039013;28;20051;-67
2022/07/24 03:07:07;;;;;;;16.05;9.13;;;;;;;20.62;nan;99179.19;5061606;28;20047;-64
2022/07/24 03:09:32;;;;;;;11.20;8.85;;;;;;;20.74;nan;99165.19;5060926;28;20775;-64
2022/07/24 03:11:56;;;;;;;14.13;9.50;;;;;;;20.84;nan;99168.47;5042034;28;20042;-64
2022/07/24 03:14:21;;;;;;;17.13;9.85;;;;;;;20.94;nan;99167.16;5060022;28;20527;-65
2022/07/24 03:16:46;;;;;;;16.90;9.43;;;;;;;21.04;nan;99164.16;5056816;28;20066;-65
2022/07/24 03:19:10;;;;;;;14.23;10.23;;;;;;;21.19;nan;99165.00;5055866;28;20071;-65
2022/07/24 03:21:35;;;;;;;12.57;10.07;;;;;;;21.33;nan;99164.13;5037919;28;20035;-65
2022/07/24 03:24:00;;;;;;;14.68;9.73;;;;;;;21.47;nan;99156.16;5055919;28;20043;-64
2022/07/24 03:26:25;;;;;;;15.45;9.13;;;;;;;21.57;nan;99151.25;5004368;28;20039;-64
2022/07/24 03:28:50;;;;;;;15.07;9.57;;;;;;;21.68;nan;99153.47;5055730;28;20545;-65
2022/07/24 03:31:14;;;;;;;17.35;8.85;;;;;;;21.80;nan;99164.66;5056128;28;20103;-65
2022/07/24 03:33:39;;;;;;;14.38;8.63;;;;;;;21.92;nan;99158.53;5037391;28;20040;-65
2022/07/24 03:36:04;;;;;;;14.73;8.43;;;;;;;22.07;nan;99164.75;5055459;28;20562;-65
2022/07/24 03:38:29;;;;;;;15.75;9.05;;;;;;;22.22;nan;99153.00;5055401;28;20040;-68
2022/07/24 03:40:54;;;;;;;11.23;8.23;;;;;;;22.34;nan;99151.41;5055211;28;20039;-65
2022/07/24 03:43:18;;;;;;;12.65;8.57;;;;;;;22.42;nan;99145.84;5055408;28;20042;-64
2022/07/24 03:45:43;;;;;;;12.18;8.93;;;;;;;22.56;nan;99154.94;5055501;28;20048;-64
2022/07/24 03:48:08;;;;;;;11.50;8.00;;;;;;;22.68;nan;99159.63;5055045;28;20051;-65
2022/07/24 03:50:33;;;;;;;11.95;7.40;;;;;;;22.77;nan;99155.72;5055383;28;20044;-64
2022/07/24 03:52:57;;;;;;;14.18;8.27;;;;;;;22.88;nan;99153.50;5037171;28;20394;-65
2022/07/24 03:55:22;;;;;;;10.10;7.22;;;;;;;23.03;nan;99154.19;5055232;28;20050;-65
2022/07/24 03:57:47;;;;;;;17.65;7.50;;;;;;;23.20;nan;99152.81;5055175;28;20040;-65
2022/07/24 04:00:13;;;;;;;10.73;6.45;;;;;;;23.35;nan;99149.97;5054794;28;20046;-65
2022/07/24 04:02:37;;;;;;;10.82;6.93;;;;;;;23.46;nan;99147.50;5055069;28;20048;-65
2022/07/24 04:05:03;;;;;;;14.82;7.47;;;;;;;23.58;nan;99149.66;5036405;28;20058;-65
2022/07/24 04:07:28;;;;;;;8.93;6.53;;;;;;;23.69;nan;99157.22;5055731;28;20395;-65
2022/07/24 04:09:53;;;;;;;9.85;6.45;;;;;;;23.82;nan;99149.88;5037262;28;20147;-65
2022/07/24 04:12:17;;;;;;;10.48;6.82;;;;;;;23.96;nan;99152.63;5036744;28;20417;-64
2022/07/24 04:14:42;;;;;;;9.43;7.57;;;;;;;24.09;nan;99149.94;5054701;28;20078;-65
2022/07/24 04:17:07;;;;;;;11.38;8.05;;;;;;;24.15;nan;99154.56;5054766;28;20392;-65
2022/07/24 04:19:32;;;;;;;10.63;8.13;;;;;;;24.20;nan;99158.31;5055047;28;20043;-65
2022/07/24 04:21:57;;;;;;;13.85;8.10;;;;;;;24.29;nan;99152.69;5054778;28;20127;-65
2022/07/24 04:24:22;;;;;;;9.00;6.95;;;;;;;24.39;nan;99156.66;5056767;28;20498;-65
2022/07/24 04:26:47;;;;;;;9.55;6.20;;;;;;;24.49;nan;99154.34;5056607;28;20409;-64
2022/07/24 04:29:12;;;;;;;16.35;6.68;;;;;;;24.63;nan;99159.81;5055555;28;20084;-65
2022/07/24 04:31:36;;;;;;;8.15;6.00;;;;;;;24.72;nan;99153.91;5036700;28;20131;-65
2022/07/24 04:34:01;;;;;;;10.20;6.13;;;;;;;24.72;nan;99153.09;5054599;28;20043;-65
2022/07/24 04:36:26;;;;;;;9.52;6.40;;;;;;;24.74;nan;99151.81;5055161;28;20462;-65
2022/07/24 04:38:51;;;;;;;8.32;6.93;;;;;;;24.97;nan;99151.38;5054564;28;20543;-65
2022/07/24 04:41:17;;;;;;;10.82;5.75;;;;;;;25.37;nan;99151.25;5036492;28;20050;-65
2022/07/24 04:43:42;;;;;;;7.40;6.55;;;;;;;25.82;nan;99154.81;5054781;28;20063;-66
2022/07/24 04:46:06;;;;;;;8.63;6.40;;;;;;;26.27;nan;99148.22;5036453;28;20078;-65
2022/07/24 04:48:31;;;;;;;11.05;6.70;;;;;;;26.73;nan;99144.22;5054423;28;20048;-64
2022/07/24 04:50:56;;;;;;;8.98;6.40;;;;;;;27.11;nan;99149.50;5036444;28;20116;-65
2022/07/24 04:53:23;;;;;;;14.00;7.35;;;;;;;27.48;nan;99155.78;5019627;28;20044;-63
2022/07/24 04:55:47;;;;;;;12.48;7.53;;;;;;;27.71;nan;99153.19;5054362;28;20082;-62
2022/07/24 04:58:12;;;;;;;9.77;7.68;;;;;;;27.78;nan;99156.66;5036467;28;20072;-63
2022/07/24 05:00:37;;;;;;;18.63;8.15;;;;;;;27.82;nan;99149.66;5054593;28;20052;-62
2022/07/24 05:03:02;;;;;;;12.93;9.02;;;;;;;27.92;nan;99156.47;5036445;28;20051;-63
2022/07/24 05:05:27;;;;;;;11.23;7.85;;;;;;;28.04;nan;99154.63;5036288;28;20048;-62
2022/07/24 05:07:52;;;;;;;9.73;7.03;;;;;;;28.14;nan;99152.13;5054636;28;20071;-62
2022/07/24 05:10:16;;;;;;;9.77;6.07;;;;;;;28.27;nan;99159.34;5054594;28;20188;-63
2022/07/24 05:12:41;;;;;;;10.38;5.90;;;;;;;28.46;nan;99153.53;5036242;28;20043;-63
2022/07/24 05:15:07;;;;;;;7.85;5.80;;;;;;;28.65;nan;99143.28;5054573;28;20044;-65
2022/07/24 05:17:33;;;;;;;9.48;6.60;;;;;;;28.85;nan;99145.69;5058122;28;20113;-65
2022/07/24 05:19:58;;;;;;;7.70;5.35;;;;;;;29.00;nan;99148.78;5039816;28;20068;-65
2022/07/24 05:22:22;;;;;;;9.43;6.30;;;;;;;29.22;nan;99144.34;5058114;28;20071;-64
2022/07/24 05:24:47;;;;;;;6.60;5.75;;;;;;;29.39;nan;99135.34;5039923;28;20039;-65
2022/07/24 05:27:12;;;;;;;7.70;5.57;;;;;;;29.56;nan;99139.84;5058123;28;20040;-66
2022/07/24 05:29:37;;;;;;;8.38;5.55;;;;;;;29.88;nan;99142.94;5039563;28;20146;-67
2022/07/24 05:32:02;;;;;;;8.20;5.93;;;;;;;30.26;nan;99127.66;5057918;28;20120;-64
2022/07/24 05:34:26;;;;;;;14.10;5.78;;;;;;;30.55;nan;99137.53;5023208;28;20036;-64
2022/07/24 05:36:51;;;;;;;7.97;5.18;;;;;;;30.82;nan;99128.53;5039590;28;20040;-63
2022/07/24 05:39:16;;;;;;;5.97;5.10;;;;;;;31.14;nan;99137.84;5057747;28;20075;-64
2022/07/24 05:41:41;;;;;;;8.38;4.93;;;;;;;31.48;nan;99127.53;5057653;28;20047;-64
2022/07/24 05:44:06;;;;;;;9.30;5.63;;;;;;;31.80;nan;99130.41;5039590;28;20081;-65
2022/07/24 05:46:30;;;;;;;8.00;5.88;;;;;;;32.08;nan;99135.63;5057683;28;20490;-65
2022/07/24 05:48:55;;;;;;;6.65;5.72;;;;;;;32.39;nan;99139.50;5057518;28;20516;-66
2022/07/24 05:51:20;;;;;;;10.43;5.57;;;;;;;32.58;nan;99137.19;5057564;28;20082;-65
2022/07/24 05:53:45;;;;;;;9.68;5.63;;;;;;;32.80;nan;99128.81;5038709;28;20048;-65
2022/07/24 05:56:09;;;;;;;8.65;6.13;;;;;;;32.97;nan;99129.44;5057726;28;20458;-65
2022/07/24 05:58:35;;;;;;;17.65;8.90;;;;;;;33.26;nan;99138.19;5057467;28;20047;-64
2022/07/24 06:01:00;;;;;;;9.57;6.32;;;;;;;33.58;nan;99124.22;5057183;28;20117;-65
2022/07/24 06:03:24;;;;;;;6.82;5.85;;;;;;;33.88;nan;99126.25;5058022;28;20517;-64
2022/07/24 06:05:49;;;;;;;9.52;5.88;;;;;;;34.35;nan;99122.44;5060181;28;20127;-64
2022/07/24 06:08:14;;;;;;;5.70;5.10;;;;;;;34.98;nan;99120.19;5058052;28;20051;-64
2022/07/24 06:10:39;;;;;;;6.45;5.47;;;;;;;35.60;nan;99119.66;5039000;28;20590;-67
2022/07/24 06:13:04;;;;;;;7.95;5.32;;;;;;;36.17;nan;99121.78;5056885;28;20524;-67
2022/07/24 06:15:29;;;;;;;7.57;5.75;;;;;;;36.92;nan;99127.81;5057061;28;20039;-63
2022/07/24 06:17:54;;;;;;;7.22;6.15;;;;;;;37.42;nan;99184.81;5056705;28;20047;-64
2022/07/24 06:20:19;;;;;;;9.93;5.15;;;;;;;37.53;nan;99176.34;5056833;28;20036;-62
2022/07/24 06:22:44;;;;;;;7.18;4.75;;;;;;;37.95;nan;99123.47;5056868;28;20058;-64
2022/07/24 06:25:10;;;;;;;6.07;5.47;;;;;;;38.55;nan;99129.22;5038683;28;20028;-63
2022/07/24 06:27:46;;;;;;;5.30;4.85;;;;;;;39.29;nan;99126.41;5055908;28;20047;-66
2022/07/24 06:30:15;;;;;;;5.40;5.00;;;;;;;39.64;nan;99124.88;5038206;28;20529;-65
2022/07/24 06:32:40;;;;;;;5.53;4.97;;;;;;;39.98;nan;99118.81;5038231;28;20524;-67
2022/07/24 06:35:05;;;;;;;5.70;5.20;;;;;;;40.54;nan;99126.63;5056189;28;20502;-66
2022/07/24 06:37:30;;;;;;;6.93;5.63;;;;;;;40.94;nan;99124.75;5056439;28;20047;-66
2022/07/24 06:39:55;;;;;;;5.45;4.95;;;;;;;41.41;nan;99127.94;5056372;28;20039;-65
2022/07/24 06:42:20;;;;;;;7.95;5.43;;;;;;;41.87;nan;99119.81;5056391;28;20611;-66
2022/07/24 06:44:45;;;;;;;9.80;5.90;;;;;;;42.27;nan;99122.44;5038035;28;20067;-66
2022/07/24 06:47:10;;;;;;;6.35;5.75;;;;;;;42.77;nan;99119.94;5056041;28;20074;-66
2022/07/24 06:49:34;;;;;;;6.88;5.80;;;;;;;43.25;nan;99118.75;5038013;28;20503;-67
2022/07/24 06:51:59;;;;;;;5.75;5.25;;;;;;;43.59;nan;99117.75;5038099;28;20048;-67
2022/07/24 06:54:24;;;;;;;10.43;6.18;;;;;;;43.70;nan;99122.63;5056073;28;20040;-67
2022/07/24 06:56:48;;;;;;;5.35;4.95;;;;;;;43.91;nan;99114.19;5038253;28;20043;-66
2022/07/24 06:59:13;;;;;;;6.15;5.63;;;;;;;44.23;nan;99111.81;5037593;28;20048;-66
2022/07/24 07:01:38;;;;;;;8.32;6.15;;;;;;;44.21;nan;99108.53;5056036;28;20462;-66
2022/07/24 07:04:03;;;;;;;8.75;6.72;;;;;;;44.08;nan;99104.84;5056452;28;20151;-68
2022/07/24 07:06:27;;;;;;;6.45;5.85;;;;;;;43.91;nan;99102.97;5056210;28;20043;-67
2022/07/24 07:08:52;;;;;;;6.55;5.95;;;;;;;44.02;nan;99104.22;5057371;28;20047;-66
2022/07/24 07:11:17;;;;;;;6.18;5.68;;;;;;;44.27;nan;99093.91;5057094;28;20494;-66
2022/07/24 07:13:41;;;;;;;6.28;5.68;;;;;;;44.61;nan;99103.19;5039343;28;20044;-66
2022/07/24 07:16:06;;;;;;;6.78;6.28;;;;;;;44.65;nan;99093.72;5057894;28;20482;-67
2022/07/24 07:18:32;;;;;;;8.77;8.02;;;;;;;44.99;nan;99091.66;5057204;28;20048;-67
2022/07/24 07:20:57;;;;;;;7.88;7.20;;;;;;;45.62;nan;99092.13;5055710;28;20093;-66
2022/07/24 07:23:26;;;;;;;7.22;6.30;;;;;;;44.78;nan;99091.78;5037522;28;20036;-67
2022/07/24 07:25:51;;;;;;;9.23;7.22;;;;;;;44.94;nan;99083.44;5037435;28;20521;-68
2022/07/24 07:28:16;;;;;;;8.23;7.53;;;;;;;45.61;nan;99104.56;5036982;28;20477;-64
2022/07/24 07:30:41;;;;;;;8.48;7.75;;;;;;;45.36;nan;99096.16;5055450;28;20106;-65
2022/07/24 07:33:06;;;;;;;8.05;7.35;;;;;;;44.97;nan;99086.38;5055466;28;20098;-65
2022/07/24 07:35:30;;;;;;;7.20;6.50;;;;;;;44.65;nan;99084.44;5055400;28;20048;-64
2022/07/24 07:37:55;;;;;;;8.45;7.65;;;;;;;44.38;nan;99089.53;5055265;28;20036;-64
2022/07/24 07:40:20;;;;;;;7.30;6.63;;;;;;;44.81;nan;99080.63;5036437;28;20513;-64
2022/07/24 07:42:45;;;;;;;8.98;7.97;;;;;;;45.28;nan;99085.00;5037402;28;20047;-64
2022/07/24 07:45:09;;;;;;;9.05;8.27;;;;;;;45.91;nan;99075.78;5056538;28;20064;-65
2022/07/24 07:47:38;;;;;;;8.95;8.35;;;;;;;46.57;nan;99088.53;5037184;28;20097;-66
2022/07/24 07:50:04;;;;;;;7.90;7.30;;;;;;;46.73;nan;99075.31;5055419;28;20054;-66
2022/07/24 07:52:28;;;;;;;9.10;8.30;;;;;;;46.95;nan;99071.84;4988006;28;20552;-66
2022/07/24 07:54:53;;;;;;;9.40;8.65;;;;;;;48.06;nan;99075.25;5055161;28;20457;-68
2022/07/24 07:57:18;;;;;;;9.13;8.38;;;;;;;49.54;nan;99082.00;5054802;28;20054;-66
2022/07/24 07:59:43;;;;;;;11.63;10.85;;;;;;;50.01;nan;99077.78;5037727;28;20074;-68
2022/07/24 08:02:07;;;;;;;11.20;10.30;;;;;;;50.13;nan;99077.50;5038832;28;20047;-66
2022/07/24 08:04:32;;;;;;;12.68;11.77;;;;;;;50.00;nan;99073.34;5020678;28;20092;-66
2022/07/24 08:06:57;;;;;;;12.65;11.73;;;;;;;49.99;nan;99072.50;5054995;28;20043;-66
2022/07/24 08:09:22;;;;;;;13.10;12.05;;;;;;;50.46;nan;99073.84;5036811;28;20077;-66
2022/07/24 08:11:46;;;;;;;12.52;11.70;;;;;;;51.18;nan;99076.19;5036703;28;20453;-67
2022/07/24 08:14:11;;;;;;;13.93;13.13;;;;;;;51.74;nan;99101.34;5054844;28;20119;-66
2022/07/24 08:16:36;;;;;;;16.08;15.07;;;;;;;52.37;nan;99082.16;5036591;28;20134;-65
2022/07/24 08:19:00;;;;;;;18.25;16.88;;;;;;;53.07;nan;99069.22;5054729;28;20047;-65
2022/07/24 08:21:25;;;;;;;19.17;18.15;;;;;;;53.85;nan;99098.44;5054749;28;20044;-65
2022/07/24 08:23:50;;;;;;;21.90;20.17;;;;;;;54.49;nan;99112.47;5055240;28;20028;-65
2022/07/24 08:26:15;;;;;;;23.60;21.80;;;;;;;54.87;nan;99113.44;5054853;28;20047;-65
2022/07/24 08:28:40;;;;;;;24.08;22.67;;;;;;;55.01;nan;99110.47;5054648;28;20112;-65
2022/07/24 08:31:05;;;;;;;24.52;23.23;;;;;;;55.09;nan;99099.78;5019575;28;20050;-65
2022/07/24 08:33:29;;;;;;;23.85;22.55;;;;;;;54.48;nan;99096.56;5054317;28;20040;-64
2022/07/24 08:35:54;;;;;;;26.65;25.05;;;;;;;53.16;nan;99096.09;5036471;28;20036;-65
2022/07/24 08:38:19;;;;;;;22.23;20.88;;;;;;;51.52;nan;99042.72;5054820;28;20036;-65
2022/07/24 08:40:45;;;;;;;21.17;20.00;;;;;;;51.27;nan;99048.25;5054421;28;20051;-65
2022/07/24 08:43:10;;;;;;;20.40;19.23;;;;;;;51.62;nan;99052.56;5036444;28;20032;-66
2022/07/24 08:45:39;;;;;;;20.05;18.80;;;;;;;51.83;nan;99052.66;5054315;28;20054;-66
2022/07/24 08:48:06;;;;;;;22.00;20.75;;;;;;;51.80;nan;99048.59;5036361;28;20156;-65
2022/07/24 08:50:39;;;;;;;18.17;17.17;;;;;;;51.60;nan;99047.25;5055391;28;20052;-65
2022/07/24 08:53:04;;;;;;;19.85;18.73;;;;;;;50.93;nan;99036.22;5058472;28;20119;-67
2022/07/24 08:55:30;;;;;;;17.77;16.67;;;;;;;50.83;nan;99026.38;5058301;28;20044;-67
2022/07/24 08:58:01;;;;;;;16.27;15.38;;;;;;;51.72;nan;99037.56;5058349;28;20072;-67
2022/07/24 09:00:28;;;;;;;18.88;17.88;;;;;;;52.30;nan;99033.75;5058387;28;20036;-67
2022/07/24 09:02:53;;;;;;;19.75;18.70;;;;;;;52.85;nan;99028.53;5058408;28;20576;-67
2022/07/24 09:05:18;;;;;;;20.83;19.58;;;;;;;52.78;nan;99037.09;5058366;28;20048;-67
2022/07/24 09:07:43;;;;;;;18.55;17.55;;;;;;;51.14;nan;99027.84;5040116;28;20525;-67
2022/07/24 09:10:11;;;;;;;16.60;15.60;;;;;;;50.23;nan;99039.19;5058014;28;20498;-67
2022/07/24 09:12:42;;;;;;;16.48;15.50;;;;;;;50.88;nan;99030.09;5058193;28;20044;-68
2022/07/24 09:15:14;;;;;;;17.83;16.77;;;;;;;51.61;nan;99028.19;5039628;28;20039;-68
2022/07/24 09:17:57;;;;;;;18.00;17.10;;;;;;;52.14;nan;99031.28;5057892;28;20507;-67
2022/07/24 09:20:24;;;;;;;19.58;18.48;;;;;;;52.18;nan;99017.84;5039989;28;20048;-67
2022/07/24 09:22:49;;;;;;;22.10;20.80;;;;;;;53.18;nan;99058.63;5057900;28;20524;-67
2022/07/24 09:25:23;;;;;;;23.10;21.77;;;;;;;53.45;nan;99062.69;5057879;28;20044;-67
2022/07/24 09:28:00;;;;;;;23.80;22.40;;;;;;;53.06;nan;99010.63;5057815;28;20044;-67
2022/07/24 09:30:31;;;;;;;22.05;20.75;;;;;;;50.65;nan;99021.78;5022808;28;20056;-68
2022/07/24 09:32:58;;;;;;;16.63;15.70;;;;;;;49.19;nan;99019.97;5039742;28;20039;-67
2022/07/24 09:35:30;;;;;;;15.70;14.80;;;;;;;48.92;nan;99021.94;5057968;28;20070;-68
2022/07/24 09:37:57;;;;;;;15.00;14.10;;;;;;;48.25;nan;99007.38;5057991;28;20093;-68
2022/07/24 09:40:28;;;;;;;16.63;15.32;;;;;;;49.60;nan;99022.97;5057703;28;20032;-67
2022/07/24 09:43:11;;;;;;;16.33;15.07;;;;;;;49.44;nan;99017.50;5057948;28;20052;-68
2022/07/24 09:45:55;;;;;;;17.63;16.52;;;;;;;50.47;nan;99024.41;5057760;28;20040;-67
2022/07/24 09:48:23;;;;;;;16.90;15.80;;;;;;;49.76;nan;99024.41;5057723;28;20040;-67
2022/07/24 09:50:53;;;;;;;16.85;15.90;;;;;;;50.29;nan;99027.09;5057641;28;20040;-67
2022/07/24 09:53:20;;;;;;;18.02;17.02;;;;;;;51.59;nan;99014.38;5057535;28;20040;-67
2022/07/24 09:55:55;;;;;;;21.73;20.38;;;;;;;53.27;nan;99011.44;5057695;28;20123;-67
2022/07/24 09:58:20;;;;;;;22.13;20.83;;;;;;;54.00;nan;99065.78;5057899;28;20039;-67
2022/07/24 10:00:46;;;;;;;22.90;21.67;;;;;;;52.72;nan;99055.78;5057379;28;20040;-68
2022/07/24 10:03:14;;;;;;;22.08;20.45;;;;;;;51.39;nan;99021.56;5058073;28;20048;-67
2022/07/24 10:05:43;;;;;;;18.80;17.70;;;;;;;50.85;nan;99011.81;5059415;28;20418;-67
2022/07/24 10:08:13;;;;;;;19.77;18.77;;;;;;;50.50;nan;99018.78;5058054;28;20046;-68
2022/07/24 10:10:40;;;;;;;19.65;18.58;;;;;;;49.83;nan;99003.84;5039307;28;20122;-69
2022/07/24 10:13:05;;;;;;;15.10;14.20;;;;;;;49.00;nan;99005.88;5057223;28;20159;-67
2022/07/24 10:15:35;;;;;;;14.65;13.65;;;;;;;48.83;nan;99007.25;5057475;28;20079;-67
2022/07/24 10:18:09;;;;;;;16.67;15.77;;;;;;;50.19;nan;99001.44;5038973;28;20418;-67
2022/07/24 10:20:42;;;;;;;15.32;14.38;;;;;;;50.01;nan;99004.06;5057146;28;20051;-66
2022/07/24 10:23:07;;;;;;;15.55;14.55;;;;;;;47.61;nan;98991.13;5057117;28;20121;-67
2022/07/24 10:25:46;;;;;;;12.35;11.52;;;;;;;45.72;nan;98990.25;5057163;28;20050;-67
2022/07/24 10:28:14;;;;;;;9.93;9.23;;;;;;;43.17;nan;98976.50;5056958;28;20043;-65
2022/07/24 10:30:40;;;;;;;12.07;8.95;;;;;;;43.13;nan;98967.94;5056848;28;20048;-67
2022/07/24 10:33:05;;;;;;;11.57;10.68;;;;;;;45.09;nan;98967.38;5057466;28;20040;-66
2022/07/24 10:35:33;;;;;;;8.98;8.25;;;;;;;45.70;nan;98978.53;5057047;28;20044;-67
2022/07/24 10:38:21;;;;;;;9.52;8.82;;;;;;;45.07;nan;98975.34;5060902;28;20481;-65
2022/07/24 10:40:49;;;;;;;9.15;8.35;;;;;;;42.81;nan;98966.66;5057461;28;20036;-67
2022/07/24 10:43:18;;;;;;;7.57;6.82;;;;;;;41.37;nan;99001.84;5057537;28;20047;-65
2022/07/24 10:46:03;;;;;;;7.20;6.50;;;;;;;40.57;nan;98959.16;5058722;28;20056;-65
2022/07/24 10:48:32;;;;;;;6.82;6.18;;;;;;;39.14;nan;98943.56;5029017;28;20145;-63
2022/07/24 10:50:57;;;;;;;6.32;5.70;;;;;;;38.27;nan;98938.91;5059872;28;20441;-66
2022/07/24 10:53:22;;;;;;;6.25;5.65;;;;;;;37.65;nan;98945.88;5038588;28;20419;-64
2022/07/24 10:55:47;;;;;;;5.95;5.35;;;;;;;37.15;nan;98927.97;5057103;28;20525;-64
2022/07/24 10:58:15;;;;;;;6.32;5.68;;;;;;;36.61;nan;98932.84;5057307;28;20744;-65
2022/07/24 11:00:44;;;;;;;5.82;5.32;;;;;;;36.11;nan;98945.34;5040276;28;20044;-65
2022/07/24 11:03:23;;;;;;;5.90;5.40;;;;;;;35.80;nan;98944.81;5057179;28;20035;-64
2022/07/24 11:06:09;;;;;;;8.30;5.50;;;;;;;35.39;nan;98932.38;5057158;28;20048;-64
2022/07/24 11:08:38;;;;;;;8.02;5.72;;;;;;;34.93;nan;98919.63;5023898;28;20048;-69
2022/07/24 11:11:09;;;;;;;6.75;5.50;;;;;;;34.49;nan;98930.59;5059635;28;20042;-70
2022/07/24 11:13:33;;;;;;;7.50;5.15;;;;;;;34.14;nan;98914.09;5059493;28;20074;-69
2022/07/24 11:16:10;;;;;;;6.15;4.95;;;;;;;34.10;nan;98913.81;5058544;28;20040;-70
2022/07/24 11:18:35;;;;;;;5.55;5.05;;;;;;;33.71;nan;98899.75;5040919;28;20046;-69
2022/07/24 11:21:00;;;;;;;5.35;4.88;;;;;;;33.44;nan;98911.09;5042628;28;20067;-70
2022/07/24 11:23:25;;;;;;;5.75;5.10;;;;;;;33.16;nan;98903.31;5060219;28;20529;-70
2022/07/24 11:25:49;;;;;;;7.80;5.78;;;;;;;32.85;nan;98904.34;5043306;28;20515;-69
2022/07/24 11:28:14;;;;;;;8.63;5.35;;;;;;;32.68;nan;98905.38;5058372;28;20051;-70
2022/07/24 11:30:44;;;;;;;7.38;5.55;;;;;;;32.65;nan;98894.88;5057408;28;20052;-70
2022/07/24 11:33:11;;;;;;;6.78;5.00;;;;;;;32.45;nan;98895.66;5062506;28;20184;-70
2022/07/24 11:35:38;;;;;;;6.80;5.32;;;;;;;32.34;nan;98896.69;5045144;28;20039;-71